sensor_id;sensor_type;location;lat;lon;timestamp;temperature;humidity
612;DHT22;293;53.888;11.464;2024-02-15T00:00:36;11.60;99.90
612;DHT22;293;53.888;11.464;2024-02-15T00:03:03;11.60;99.90
612;DHT22;293;53.888;11.464;2024-02-15T00:05:32;11.60;99.90
612;DHT22;293;53.888;11.464;2024-02-15T00:08:00;11.60;99.90
612;DHT22;293;53.888;11.464;2024-02-15T00:10:27;11.60;99.90
612;DHT22;293;53.888;11.464;2024-02-15T00:12:54;11.60;99.90
612;DHT22;293;53.888;11.464;2024-02-15T00:15:22;11.60;99.90
612;DHT22;293;53.888;11.464;2024-02-15T00:17:49;11.50;99.90
612;DHT22;293;53.888;11.464;2024-02-15T00:20:17;11.60;99.90
612;DHT22;293;53.888;11.464;2024-02-15T00:22:45;11.60;99.90
612;DHT22;293;53.888;11.464;2024-02-15T00:25:13;11.60;99.90
612;DHT22;293;53.888;11.464;2024-02-15T00:27:40;11.50;99.90
612;DHT22;293;53.888;11.464;2024-02-15T00:30:08;11.50;99.90
612;DHT22;293;53.888;11.464;2024-02-15T00:32:36;11.50;99.90
612;DHT22;293;53.888;11.464;2024-02-15T00:35:03;11.50;99.90
612;DHT22;293;53.888;11.464;2024-02-15T00:37:33;11.50;99.90
612;DHT22;293;53.888;11.464;2024-02-15T00:40:00;11.50;99.90
612;DHT22;293;53.888;11.464;2024-02-15T00:42:29;11.60;99.90
612;DHT22;293;53.888;11.464;2024-02-15T00:44:57;11.60;99.90
612;DHT22;293;53.888;11.464;2024-02-15T00:47:24;11.60;99.90
612;DHT22;293;53.888;11.464;2024-02-15T00:49:52;11.50;99.90
612;DHT22;293;53.888;11.464;2024-02-15T00:52:19;11.60;99.90
612;DHT22;293;53.888;11.464;2024-02-15T00:54:46;11.50;99.90
612;DHT22;293;53.888;11.464;2024-02-15T00:57:13;11.60;99.90
612;DHT22;293;53.888;11.464;2024-02-15T00:59:39;11.60;99.90
612;DHT22;293;53.888;11.464;2024-02-15T01:02:06;11.60;99.90
612;DHT22;293;53.888;11.464;2024-02-15T01:04:34;11.60;99.90
612;DHT22;293;53.888;11.464;2024-02-15T01:07:02;11.60;99.90
612;DHT22;293;53.888;11.464;2024-02-15T01:09:29;11.60;99.90
612;DHT22;293;53.888;11.464;2024-02-15T01:11:56;11.60;99.90
612;DHT22;293;53.888;11.464;2024-02-15T01:14:23;11.60;99.90
612;DHT22;293;53.888;11.464;2024-02-15T01:16:50;11.60;99.90
612;DHT22;293;53.888;11.464;2024-02-15T01:19:17;11.60;99.90
612;DHT22;293;53.888;11.464;2024-02-15T01:21:44;11.60;99.90
612;DHT22;293;53.888;11.464;2024-02-15T01:24:13;11.60;99.90
612;DHT22;293;53.888;11.464;2024-02-15T01:26:40;11.60;99.90
612;DHT22;293;53.888;11.464;2024-02-15T01:29:07;11.60;99.90
612;DHT22;293;53.888;11.464;2024-02-15T01:31:36;11.60;99.90
612;DHT22;293;53.888;11.464;2024-02-15T01:34:04;11.60;99.90
612;DHT22;293;53.888;11.464;2024-02-15T01:36:31;11.60;99.90
612;DHT22;293;53.888;11.464;2024-02-15T01:38:58;11.60;99.90
612;DHT22;293;53.888;11.464;2024-02-15T01:41:26;11.60;99.90
612;DHT22;293;53.888;11.464;2024-02-15T01:43:53;11.60;99.90
612;DHT22;293;53.888;11.464;2024-02-15T01:46:21;11.60;99.90
612;DHT22;293;53.888;11.464;2024-02-15T01:48:48;11.60;99.90
612;DHT22;293;53.888;11.464;2024-02-15T01:51:16;11.60;99.90
612;DHT22;293;53.888;11.464;2024-02-15T01:53:43;11.50;99.90
612;DHT22;293;53.888;11.464;2024-02-15T01:56:13;11.60;99.90
612;DHT22;293;53.888;11.464;2024-02-15T01:58:43;11.60;99.90
612;DHT22;293;53.888;11.464;2024-02-15T02:01:11;11.60;99.90
612;DHT22;293;53.888;11.464;2024-02-15T02:03:39;11.60;99.90
612;DHT22;293;53.888;11.464;2024-02-15T02:06:06;11.50;99.90
612;DHT22;293;53.888;11.464;2024-02-15T02:08:34;11.60;99.90
612;DHT22;293;53.888;11.464;2024-02-15T02:11:01;11.50;99.90
612;DHT22;293;53.888;11.464;2024-02-15T02:13:29;11.60;99.90
612;DHT22;293;53.888;11.464;2024-02-15T02:15:57;11.60;99.90
612;DHT22;293;53.888;11.464;2024-02-15T02:18:25;11.60;99.90
612;DHT22;293;53.888;11.464;2024-02-15T02:20:52;11.60;99.90
612;DHT22;293;53.888;11.464;2024-02-15T02:23:21;11.60;99.90
612;DHT22;293;53.888;11.464;2024-02-15T02:25:54;11.60;99.90
612;DHT22;293;53.888;11.464;2024-02-15T02:28:21;11.60;99.90
612;DHT22;293;53.888;11.464;2024-02-15T02:30:48;11.60;99.90
612;DHT22;293;53.888;11.464;2024-02-15T02:33:15;11.60;99.90
612;DHT22;293;53.888;11.464;2024-02-15T02:35:44;11.60;99.90
612;DHT22;293;53.888;11.464;2024-02-15T02:38:12;11.60;99.90
612;DHT22;293;53.888;11.464;2024-02-15T02:40:40;11.60;99.90
612;DHT22;293;53.888;11.464;2024-02-15T02:43:08;11.50;99.90
612;DHT22;293;53.888;11.464;2024-02-15T02:45:35;11.60;99.90
612;DHT22;293;53.888;11.464;2024-02-15T02:48:02;11.50;99.90
612;DHT22;293;53.888;11.464;2024-02-15T02:50:29;11.50;99.90
612;DHT22;293;53.888;11.464;2024-02-15T02:52:56;11.50;99.90
612;DHT22;293;53.888;11.464;2024-02-15T02:55:23;11.60;99.90
612;DHT22;293;53.888;11.464;2024-02-15T02:57:52;11.60;99.90
612;DHT22;293;53.888;11.464;2024-02-15T03:00:22;11.60;99.90
612;DHT22;293;53.888;11.464;2024-02-15T03:02:48;11.60;99.90
612;DHT22;293;53.888;11.464;2024-02-15T03:05:15;11.60;99.90
612;DHT22;293;53.888;11.464;2024-02-15T03:07:41;11.60;99.90
612;DHT22;293;53.888;11.464;2024-02-15T03:10:10;11.60;99.90
612;DHT22;293;53.888;11.464;2024-02-15T03:12:39;11.60;99.90
612;DHT22;293;53.888;11.464;2024-02-15T03:15:07;11.70;99.90
612;DHT22;293;53.888;11.464;2024-02-15T03:17:38;11.60;99.90
612;DHT22;293;53.888;11.464;2024-02-15T03:20:06;11.70;99.90
612;DHT22;293;53.888;11.464;2024-02-15T03:22:37;11.70;99.90
612;DHT22;293;53.888;11.464;2024-02-15T03:25:05;11.70;99.90
612;DHT22;293;53.888;11.464;2024-02-15T03:27:33;11.70;99.90
612;DHT22;293;53.888;11.464;2024-02-15T03:30:01;11.70;99.90
612;DHT22;293;53.888;11.464;2024-02-15T03:32:27;11.70;99.90
612;DHT22;293;53.888;11.464;2024-02-15T03:34:56;11.70;99.90
612;DHT22;293;53.888;11.464;2024-02-15T03:37:22;11.70;99.90
612;DHT22;293;53.888;11.464;2024-02-15T03:39:49;11.70;99.90
612;DHT22;293;53.888;11.464;2024-02-15T03:42:16;11.70;99.90
612;DHT22;293;53.888;11.464;2024-02-15T03:44:43;11.70;99.90
612;DHT22;293;53.888;11.464;2024-02-15T03:47:10;11.70;99.90
612;DHT22;293;53.888;11.464;2024-02-15T03:49:39;11.70;99.90
612;DHT22;293;53.888;11.464;2024-02-15T03:52:09;11.70;99.90
612;DHT22;293;53.888;11.464;2024-02-15T03:54:36;11.60;99.90
612;DHT22;293;53.888;11.464;2024-02-15T03:57:03;11.70;99.90
612;DHT22;293;53.888;11.464;2024-02-15T03:59:32;11.70;99.90
612;DHT22;293;53.888;11.464;2024-02-15T04:02:00;11.70;99.90
612;DHT22;293;53.888;11.464;2024-02-15T04:04:29;11.70;99.90
612;DHT22;293;53.888;11.464;2024-02-15T04:06:56;11.70;99.90
612;DHT22;293;53.888;11.464;2024-02-15T04:09:25;11.80;99.90
612;DHT22;293;53.888;11.464;2024-02-15T04:11:52;11.80;99.90
612;DHT22;293;53.888;11.464;2024-02-15T04:14:19;11.80;99.90
612;DHT22;293;53.888;11.464;2024-02-15T04:16:46;11.80;99.90
612;DHT22;293;53.888;11.464;2024-02-15T04:19:13;11.80;99.90
612;DHT22;293;53.888;11.464;2024-02-15T04:21:40;11.80;99.90
612;DHT22;293;53.888;11.464;2024-02-15T04:24:09;11.80;99.90
612;DHT22;293;53.888;11.464;2024-02-15T04:26:37;11.90;99.90
612;DHT22;293;53.888;11.464;2024-02-15T04:29:04;11.80;99.90
612;DHT22;293;53.888;11.464;2024-02-15T04:31:33;11.80;99.90
612;DHT22;293;53.888;11.464;2024-02-15T04:34:02;11.90;99.90
612;DHT22;293;53.888;11.464;2024-02-15T04:36:29;11.90;99.90
612;DHT22;293;53.888;11.464;2024-02-15T04:39:00;11.90;99.90
612;DHT22;293;53.888;11.464;2024-02-15T04:41:28;11.90;99.90
612;DHT22;293;53.888;11.464;2024-02-15T04:43:56;11.90;99.90
612;DHT22;293;53.888;11.464;2024-02-15T04:46:23;11.90;99.90
612;DHT22;293;53.888;11.464;2024-02-15T04:48:51;11.90;99.90
612;DHT22;293;53.888;11.464;2024-02-15T04:51:18;11.90;99.90
612;DHT22;293;53.888;11.464;2024-02-15T04:53:45;11.90;99.90
612;DHT22;293;53.888;11.464;2024-02-15T04:56:13;11.90;99.90
612;DHT22;293;53.888;11.464;2024-02-15T04:58:42;11.90;99.90
612;DHT22;293;53.888;11.464;2024-02-15T05:01:14;11.90;99.90
612;DHT22;293;53.888;11.464;2024-02-15T05:03:41;11.90;99.90
612;DHT22;293;53.888;11.464;2024-02-15T05:06:08;11.90;99.90
612;DHT22;293;53.888;11.464;2024-02-15T05:08:36;11.90;99.90
612;DHT22;293;53.888;11.464;2024-02-15T05:11:04;11.90;99.90
612;DHT22;293;53.888;11.464;2024-02-15T05:13:32;11.90;99.90
612;DHT22;293;53.888;11.464;2024-02-15T05:15:59;11.90;99.90
612;DHT22;293;53.888;11.464;2024-02-15T05:18:27;11.90;99.90
612;DHT22;293;53.888;11.464;2024-02-15T05:20:56;11.90;99.90
612;DHT22;293;53.888;11.464;2024-02-15T05:23:23;11.90;99.90
612;DHT22;293;53.888;11.464;2024-02-15T05:25:49;11.90;99.90
612;DHT22;293;53.888;11.464;2024-02-15T05:28:16;11.90;99.90
612;DHT22;293;53.888;11.464;2024-02-15T05:30:44;11.90;99.90
612;DHT22;293;53.888;11.464;2024-02-15T05:33:11;11.90;99.90
612;DHT22;293;53.888;11.464;2024-02-15T05:35:39;12.00;99.90
612;DHT22;293;53.888;11.464;2024-02-15T05:38:07;11.90;99.90
612;DHT22;293;53.888;11.464;2024-02-15T05:40:35;11.90;99.90
612;DHT22;293;53.888;11.464;2024-02-15T05:43:03;11.90;99.90
612;DHT22;293;53.888;11.464;2024-02-15T05:45:31;12.00;99.90
612;DHT22;293;53.888;11.464;2024-02-15T05:48:05;12.00;99.90
612;DHT22;293;53.888;11.464;2024-02-15T05:50:34;12.00;99.90
612;DHT22;293;53.888;11.464;2024-02-15T05:53:03;12.00;99.90
612;DHT22;293;53.888;11.464;2024-02-15T05:55:30;12.00;99.90
612;DHT22;293;53.888;11.464;2024-02-15T05:57:59;12.00;99.90
612;DHT22;293;53.888;11.464;2024-02-15T06:00:27;12.00;99.90
612;DHT22;293;53.888;11.464;2024-02-15T06:02:56;12.00;99.90
612;DHT22;293;53.888;11.464;2024-02-15T06:05:23;12.00;99.90
612;DHT22;293;53.888;11.464;2024-02-15T06:07:50;12.00;99.90
612;DHT22;293;53.888;11.464;2024-02-15T06:10:18;12.10;99.90
612;DHT22;293;53.888;11.464;2024-02-15T06:12:45;12.00;99.90
612;DHT22;293;53.888;11.464;2024-02-15T06:15:12;12.00;99.90
612;DHT22;293;53.888;11.464;2024-02-15T06:17:41;12.00;99.90
612;DHT22;293;53.888;11.464;2024-02-15T06:20:12;12.00;99.90
612;DHT22;293;53.888;11.464;2024-02-15T06:22:40;12.00;99.90
612;DHT22;293;53.888;11.464;2024-02-15T06:25:08;12.00;99.90
612;DHT22;293;53.888;11.464;2024-02-15T06:27:37;12.00;99.90
612;DHT22;293;53.888;11.464;2024-02-15T06:30:08;12.00;99.90
612;DHT22;293;53.888;11.464;2024-02-15T06:33:01;12.00;99.90
612;DHT22;293;53.888;11.464;2024-02-15T06:35:41;12.00;99.90
612;DHT22;293;53.888;11.464;2024-02-15T06:38:26;12.10;99.90
612;DHT22;293;53.888;11.464;2024-02-15T06:41:10;12.00;99.90
612;DHT22;293;53.888;11.464;2024-02-15T06:43:38;12.00;99.90
612;DHT22;293;53.888;11.464;2024-02-15T06:46:06;12.10;99.90
612;DHT22;293;53.888;11.464;2024-02-15T06:48:33;12.10;99.90
612;DHT22;293;53.888;11.464;2024-02-15T06:51:00;12.10;99.90
612;DHT22;293;53.888;11.464;2024-02-15T06:53:29;12.10;99.90
612;DHT22;293;53.888;11.464;2024-02-15T06:55:56;12.10;99.90
612;DHT22;293;53.888;11.464;2024-02-15T06:58:23;12.10;99.90
612;DHT22;293;53.888;11.464;2024-02-15T07:00:51;12.10;99.90
612;DHT22;293;53.888;11.464;2024-02-15T07:03:18;12.10;99.90
612;DHT22;293;53.888;11.464;2024-02-15T07:05:48;12.10;99.90
612;DHT22;293;53.888;11.464;2024-02-15T07:08:15;12.20;99.90
612;DHT22;293;53.888;11.464;2024-02-15T07:10:42;12.20;99.90
612;DHT22;293;53.888;11.464;2024-02-15T07:13:09;12.20;99.90
612;DHT22;293;53.888;11.464;2024-02-15T07:15:36;12.20;99.90
612;DHT22;293;53.888;11.464;2024-02-15T07:18:06;12.20;99.90
612;DHT22;293;53.888;11.464;2024-02-15T07:20:33;12.20;99.90
612;DHT22;293;53.888;11.464;2024-02-15T07:23:00;12.20;99.90
612;DHT22;293;53.888;11.464;2024-02-15T07:25:27;12.20;99.90
612;DHT22;293;53.888;11.464;2024-02-15T07:27:54;12.30;99.90
612;DHT22;293;53.888;11.464;2024-02-15T07:30:22;12.30;99.90
612;DHT22;293;53.888;11.464;2024-02-15T07:32:49;12.30;99.90
612;DHT22;293;53.888;11.464;2024-02-15T07:35:18;12.30;99.90
612;DHT22;293;53.888;11.464;2024-02-15T07:37:51;12.40;99.90
612;DHT22;293;53.888;11.464;2024-02-15T07:40:21;12.50;99.90
612;DHT22;293;53.888;11.464;2024-02-15T07:42:48;12.60;99.90
612;DHT22;293;53.888;11.464;2024-02-15T07:45:15;12.60;99.90
612;DHT22;293;53.888;11.464;2024-02-15T07:47:43;12.70;99.90
612;DHT22;293;53.888;11.464;2024-02-15T07:50:10;12.70;99.90
612;DHT22;293;53.888;11.464;2024-02-15T07:52:43;12.70;99.90
612;DHT22;293;53.888;11.464;2024-02-15T07:55:10;12.60;99.90
612;DHT22;293;53.888;11.464;2024-02-15T07:57:37;12.70;99.90
612;DHT22;293;53.888;11.464;2024-02-15T08:00:06;12.60;99.90
612;DHT22;293;53.888;11.464;2024-02-15T08:02:36;12.80;99.90
612;DHT22;293;53.888;11.464;2024-02-15T08:05:06;12.70;99.90
612;DHT22;293;53.888;11.464;2024-02-15T08:07:36;12.80;99.90
612;DHT22;293;53.888;11.464;2024-02-15T08:10:06;12.70;99.90
612;DHT22;293;53.888;11.464;2024-02-15T08:12:39;12.70;99.90
612;DHT22;293;53.888;11.464;2024-02-15T08:15:07;12.70;99.90
612;DHT22;293;53.888;11.464;2024-02-15T08:17:40;12.70;99.90
612;DHT22;293;53.888;11.464;2024-02-15T08:20:09;12.70;99.90
612;DHT22;293;53.888;11.464;2024-02-15T08:22:36;12.90;99.90
612;DHT22;293;53.888;11.464;2024-02-15T08:25:08;12.80;99.90
612;DHT22;293;53.888;11.464;2024-02-15T08:27:37;12.80;99.90
612;DHT22;293;53.888;11.464;2024-02-15T08:30:07;12.90;99.90
612;DHT22;293;53.888;11.464;2024-02-15T08:32:35;12.90;99.90
612;DHT22;293;53.888;11.464;2024-02-15T08:35:03;12.90;99.90
612;DHT22;293;53.888;11.464;2024-02-15T08:37:31;12.90;99.90
612;DHT22;293;53.888;11.464;2024-02-15T08:39:59;12.80;99.90
612;DHT22;293;53.888;11.464;2024-02-15T08:42:27;13.00;99.90
612;DHT22;293;53.888;11.464;2024-02-15T08:44:54;13.00;99.90
612;DHT22;293;53.888;11.464;2024-02-15T08:47:21;12.90;99.90
612;DHT22;293;53.888;11.464;2024-02-15T08:49:48;13.00;99.90
612;DHT22;293;53.888;11.464;2024-02-15T08:52:15;13.00;99.90
612;DHT22;293;53.888;11.464;2024-02-15T08:54:44;13.10;99.90
612;DHT22;293;53.888;11.464;2024-02-15T08:57:11;13.10;99.90
612;DHT22;293;53.888;11.464;2024-02-15T08:59:40;13.10;99.90
612;DHT22;293;53.888;11.464;2024-02-15T09:02:08;13.20;99.90
612;DHT22;293;53.888;11.464;2024-02-15T09:04:35;13.20;99.90
612;DHT22;293;53.888;11.464;2024-02-15T09:07:02;13.20;99.90
612;DHT22;293;53.888;11.464;2024-02-15T09:09:30;13.30;99.90
612;DHT22;293;53.888;11.464;2024-02-15T09:12:01;13.30;99.90
612;DHT22;293;53.888;11.464;2024-02-15T09:14:31;13.30;99.90
612;DHT22;293;53.888;11.464;2024-02-15T09:16:59;13.30;99.90
612;DHT22;293;53.888;11.464;2024-02-15T09:19:27;13.30;99.90
612;DHT22;293;53.888;11.464;2024-02-15T09:21:53;13.40;99.90
612;DHT22;293;53.888;11.464;2024-02-15T09:24:20;13.40;99.90
612;DHT22;293;53.888;11.464;2024-02-15T09:26:50;13.40;99.90
612;DHT22;293;53.888;11.464;2024-02-15T09:29:18;13.50;99.90
612;DHT22;293;53.888;11.464;2024-02-15T09:31:46;13.40;99.90
612;DHT22;293;53.888;11.464;2024-02-15T09:34:15;13.50;99.90
612;DHT22;293;53.888;11.464;2024-02-15T09:36:42;13.50;99.90
612;DHT22;293;53.888;11.464;2024-02-15T09:39:08;13.60;99.90
612;DHT22;293;53.888;11.464;2024-02-15T09:41:39;13.60;99.90
612;DHT22;293;53.888;11.464;2024-02-15T09:44:08;13.70;99.90
612;DHT22;293;53.888;11.464;2024-02-15T09:46:36;13.70;99.90
612;DHT22;293;53.888;11.464;2024-02-15T09:49:04;13.80;99.90
612;DHT22;293;53.888;11.464;2024-02-15T09:51:35;14.10;99.90
612;DHT22;293;53.888;11.464;2024-02-15T09:54:04;13.60;99.90
612;DHT22;293;53.888;11.464;2024-02-15T09:56:32;13.80;99.90
612;DHT22;293;53.888;11.464;2024-02-15T09:59:00;13.80;99.90
612;DHT22;293;53.888;11.464;2024-02-15T10:01:29;13.80;99.90
612;DHT22;293;53.888;11.464;2024-02-15T10:03:58;13.80;99.90
612;DHT22;293;53.888;11.464;2024-02-15T10:06:26;13.80;99.90
612;DHT22;293;53.888;11.464;2024-02-15T10:09:24;13.90;99.90
612;DHT22;293;53.888;11.464;2024-02-15T10:11:54;13.80;99.90
612;DHT22;293;53.888;11.464;2024-02-15T10:14:22;13.90;99.90
612;DHT22;293;53.888;11.464;2024-02-15T10:16:49;13.90;99.90
612;DHT22;293;53.888;11.464;2024-02-15T10:19:16;14.00;99.90
612;DHT22;293;53.888;11.464;2024-02-15T10:21:44;14.10;99.90
612;DHT22;293;53.888;11.464;2024-02-15T10:24:12;14.20;99.90
612;DHT22;293;53.888;11.464;2024-02-15T10:26:39;14.30;99.90
612;DHT22;293;53.888;11.464;2024-02-15T10:29:07;14.30;99.90
612;DHT22;293;53.888;11.464;2024-02-15T10:31:36;14.30;99.90
612;DHT22;293;53.888;11.464;2024-02-15T10:34:05;14.40;99.90
612;DHT22;293;53.888;11.464;2024-02-15T10:36:33;14.40;99.90
612;DHT22;293;53.888;11.464;2024-02-15T10:39:18;14.50;99.90
612;DHT22;293;53.888;11.464;2024-02-15T10:41:46;14.60;99.90
612;DHT22;293;53.888;11.464;2024-02-15T10:44:16;14.70;99.90
612;DHT22;293;53.888;11.464;2024-02-15T10:46:45;14.70;99.90
612;DHT22;293;53.888;11.464;2024-02-15T10:49:12;14.70;99.90
612;DHT22;293;53.888;11.464;2024-02-15T10:51:43;14.70;99.90
612;DHT22;293;53.888;11.464;2024-02-15T10:54:12;14.70;99.90
612;DHT22;293;53.888;11.464;2024-02-15T10:56:46;14.60;99.90
612;DHT22;293;53.888;11.464;2024-02-15T10:59:18;14.60;99.90
612;DHT22;293;53.888;11.464;2024-02-15T11:01:46;14.60;99.90
612;DHT22;293;53.888;11.464;2024-02-15T11:04:17;14.60;99.90
612;DHT22;293;53.888;11.464;2024-02-15T11:06:48;14.60;99.90
612;DHT22;293;53.888;11.464;2024-02-15T11:09:17;14.50;99.90
612;DHT22;293;53.888;11.464;2024-02-15T11:11:46;14.50;99.90
612;DHT22;293;53.888;11.464;2024-02-15T11:14:26;14.50;99.90
612;DHT22;293;53.888;11.464;2024-02-15T11:16:54;14.40;99.90
612;DHT22;293;53.888;11.464;2024-02-15T11:19:44;14.40;99.90
612;DHT22;293;53.888;11.464;2024-02-15T11:22:14;14.40;99.90
612;DHT22;293;53.888;11.464;2024-02-15T11:24:48;14.40;99.90
612;DHT22;293;53.888;11.464;2024-02-15T11:27:27;14.40;99.90
612;DHT22;293;53.888;11.464;2024-02-15T11:29:55;14.40;99.90
612;DHT22;293;53.888;11.464;2024-02-15T11:32:43;14.40;99.90
612;DHT22;293;53.888;11.464;2024-02-15T11:35:13;14.40;99.90
612;DHT22;293;53.888;11.464;2024-02-15T11:41:04;14.40;99.90
612;DHT22;293;53.888;11.464;2024-02-15T11:43:53;14.40;99.90
612;DHT22;293;53.888;11.464;2024-02-15T11:46:24;14.40;99.90
612;DHT22;293;53.888;11.464;2024-02-15T11:48:55;14.40;99.90
612;DHT22;293;53.888;11.464;2024-02-15T11:51:26;14.40;99.90
612;DHT22;293;53.888;11.464;2024-02-15T11:54:06;14.40;99.90
612;DHT22;293;53.888;11.464;2024-02-15T11:56:54;14.40;99.90
612;DHT22;293;53.888;11.464;2024-02-15T11:59:38;14.40;99.90
612;DHT22;293;53.888;11.464;2024-02-15T12:02:18;14.40;99.90
612;DHT22;293;53.888;11.464;2024-02-15T12:04:59;14.40;99.90
612;DHT22;293;53.888;11.464;2024-02-15T12:07:44;14.40;99.90
612;DHT22;293;53.888;11.464;2024-02-15T12:10:34;14.40;99.90
612;DHT22;293;53.888;11.464;2024-02-15T12:13:18;14.50;99.90
612;DHT22;293;53.888;11.464;2024-02-15T12:16:04;14.50;99.90
612;DHT22;293;53.888;11.464;2024-02-15T12:18:49;14.60;99.90
612;DHT22;293;53.888;11.464;2024-02-15T12:21:22;14.60;99.90
612;DHT22;293;53.888;11.464;2024-02-15T12:23:51;14.60;99.90
612;DHT22;293;53.888;11.464;2024-02-15T12:26:19;14.60;99.90
612;DHT22;293;53.888;11.464;2024-02-15T12:28:50;14.70;99.90
612;DHT22;293;53.888;11.464;2024-02-15T12:31:21;14.60;99.90
612;DHT22;293;53.888;11.464;2024-02-15T12:34:00;14.60;99.90
612;DHT22;293;53.888;11.464;2024-02-15T12:36:27;14.60;99.90
612;DHT22;293;53.888;11.464;2024-02-15T12:39:01;14.60;99.90
612;DHT22;293;53.888;11.464;2024-02-15T12:41:29;14.50;99.90
612;DHT22;293;53.888;11.464;2024-02-15T12:43:56;14.50;99.90
612;DHT22;293;53.888;11.464;2024-02-15T12:46:25;14.50;99.90
612;DHT22;293;53.888;11.464;2024-02-15T12:49:06;14.50;99.90
612;DHT22;293;53.888;11.464;2024-02-15T12:51:33;14.50;99.90
612;DHT22;293;53.888;11.464;2024-02-15T12:54:08;14.50;99.90
612;DHT22;293;53.888;11.464;2024-02-15T12:56:36;14.50;99.90
612;DHT22;293;53.888;11.464;2024-02-15T12:59:05;14.50;99.90
612;DHT22;293;53.888;11.464;2024-02-15T13:01:33;14.50;99.90
612;DHT22;293;53.888;11.464;2024-02-15T13:04:00;14.50;99.90
612;DHT22;293;53.888;11.464;2024-02-15T13:06:27;14.50;99.90
612;DHT22;293;53.888;11.464;2024-02-15T13:08:54;14.50;99.90
612;DHT22;293;53.888;11.464;2024-02-15T13:11:21;14.40;99.90
612;DHT22;293;53.888;11.464;2024-02-15T13:13:49;14.50;99.90
612;DHT22;293;53.888;11.464;2024-02-15T13:16:15;14.50;99.90
612;DHT22;293;53.888;11.464;2024-02-15T13:18:45;14.40;99.90
612;DHT22;293;53.888;11.464;2024-02-15T13:21:12;14.40;99.90
612;DHT22;293;53.888;11.464;2024-02-15T13:23:39;14.40;99.90
612;DHT22;293;53.888;11.464;2024-02-15T13:26:06;14.50;99.90
612;DHT22;293;53.888;11.464;2024-02-15T13:28:33;14.50;99.90
612;DHT22;293;53.888;11.464;2024-02-15T13:31:00;14.50;99.90
612;DHT22;293;53.888;11.464;2024-02-15T13:33:28;14.50;99.90
612;DHT22;293;53.888;11.464;2024-02-15T13:35:58;14.50;99.90
612;DHT22;293;53.888;11.464;2024-02-15T13:38:25;14.40;99.90
612;DHT22;293;53.888;11.464;2024-02-15T13:40:53;14.40;99.90
612;DHT22;293;53.888;11.464;2024-02-15T13:43:22;14.40;99.90
612;DHT22;293;53.888;11.464;2024-02-15T13:45:49;14.40;99.90
612;DHT22;293;53.888;11.464;2024-02-15T13:48:17;14.40;99.90
612;DHT22;293;53.888;11.464;2024-02-15T13:50:44;14.40;99.90
612;DHT22;293;53.888;11.464;2024-02-15T13:53:12;14.40;99.90
612;DHT22;293;53.888;11.464;2024-02-15T13:55:40;14.40;99.90
612;DHT22;293;53.888;11.464;2024-02-15T13:58:06;14.30;99.90
612;DHT22;293;53.888;11.464;2024-02-15T14:00:37;14.40;99.90
612;DHT22;293;53.888;11.464;2024-02-15T14:03:08;14.40;99.90
612;DHT22;293;53.888;11.464;2024-02-15T14:05:36;14.40;99.90
612;DHT22;293;53.888;11.464;2024-02-15T14:08:05;14.40;99.90
612;DHT22;293;53.888;11.464;2024-02-15T14:10:35;14.40;99.90
612;DHT22;293;53.888;11.464;2024-02-15T14:13:03;14.30;99.90
612;DHT22;293;53.888;11.464;2024-02-15T14:15:31;14.30;99.90
612;DHT22;293;53.888;11.464;2024-02-15T14:17:59;14.40;99.90
612;DHT22;293;53.888;11.464;2024-02-15T14:20:26;14.30;99.90
612;DHT22;293;53.888;11.464;2024-02-15T14:22:53;14.40;99.90
612;DHT22;293;53.888;11.464;2024-02-15T14:25:22;14.40;99.90
612;DHT22;293;53.888;11.464;2024-02-15T14:27:50;14.40;99.90
612;DHT22;293;53.888;11.464;2024-02-15T14:30:17;14.40;99.90
612;DHT22;293;53.888;11.464;2024-02-15T14:33:02;14.40;99.90
612;DHT22;293;53.888;11.464;2024-02-15T14:35:35;14.30;99.90
612;DHT22;293;53.888;11.464;2024-02-15T14:38:05;14.30;99.90
612;DHT22;293;53.888;11.464;2024-02-15T14:40:34;14.30;99.90
612;DHT22;293;53.888;11.464;2024-02-15T14:43:02;14.20;99.90
612;DHT22;293;53.888;11.464;2024-02-15T14:45:30;14.20;99.90
612;DHT22;293;53.888;11.464;2024-02-15T14:47:57;14.20;99.90
612;DHT22;293;53.888;11.464;2024-02-15T14:50:24;14.10;99.90
612;DHT22;293;53.888;11.464;2024-02-15T14:52:51;14.10;99.90
612;DHT22;293;53.888;11.464;2024-02-15T14:55:19;14.10;99.90
612;DHT22;293;53.888;11.464;2024-02-15T14:57:46;14.00;99.90
612;DHT22;293;53.888;11.464;2024-02-15T15:00:15;14.00;99.90
612;DHT22;293;53.888;11.464;2024-02-15T15:02:44;14.00;99.90
612;DHT22;293;53.888;11.464;2024-02-15T15:05:12;13.90;99.90
612;DHT22;293;53.888;11.464;2024-02-15T15:07:56;13.90;99.90
612;DHT22;293;53.888;11.464;2024-02-15T15:10:41;13.90;99.90
612;DHT22;293;53.888;11.464;2024-02-15T15:13:31;13.90;99.90
612;DHT22;293;53.888;11.464;2024-02-15T15:16:00;13.80;99.90
612;DHT22;293;53.888;11.464;2024-02-15T15:18:28;13.80;99.90
612;DHT22;293;53.888;11.464;2024-02-15T15:20:55;13.80;99.90
612;DHT22;293;53.888;11.464;2024-02-15T15:23:22;13.80;99.90
612;DHT22;293;53.888;11.464;2024-02-15T15:25:49;13.70;99.90
612;DHT22;293;53.888;11.464;2024-02-15T15:28:16;13.60;99.90
612;DHT22;293;53.888;11.464;2024-02-15T15:30:44;13.60;99.90
612;DHT22;293;53.888;11.464;2024-02-15T15:33:16;13.60;99.90
612;DHT22;293;53.888;11.464;2024-02-15T15:35:43;13.60;99.90
612;DHT22;293;53.888;11.464;2024-02-15T15:38:09;13.50;99.90
612;DHT22;293;53.888;11.464;2024-02-15T15:40:36;13.50;99.90
612;DHT22;293;53.888;11.464;2024-02-15T15:43:04;13.50;99.90
612;DHT22;293;53.888;11.464;2024-02-15T15:45:32;13.40;99.90
612;DHT22;293;53.888;11.464;2024-02-15T15:47:59;13.40;99.90
612;DHT22;293;53.888;11.464;2024-02-15T15:50:28;13.40;99.90
612;DHT22;293;53.888;11.464;2024-02-15T15:53:01;13.40;99.90
612;DHT22;293;53.888;11.464;2024-02-15T15:55:28;13.40;99.90
612;DHT22;293;53.888;11.464;2024-02-15T15:57:55;13.40;99.90
612;DHT22;293;53.888;11.464;2024-02-15T16:00:22;13.40;99.90
612;DHT22;293;53.888;11.464;2024-02-15T16:02:49;13.40;99.90
612;DHT22;293;53.888;11.464;2024-02-15T16:05:18;13.30;99.90
612;DHT22;293;53.888;11.464;2024-02-15T16:07:47;13.30;99.90
612;DHT22;293;53.888;11.464;2024-02-15T16:10:14;13.20;99.90
612;DHT22;293;53.888;11.464;2024-02-15T16:12:43;13.20;99.90
612;DHT22;293;53.888;11.464;2024-02-15T16:15:11;13.30;99.90
612;DHT22;293;53.888;11.464;2024-02-15T16:17:42;13.30;99.90
612;DHT22;293;53.888;11.464;2024-02-15T16:20:11;13.20;99.90
612;DHT22;293;53.888;11.464;2024-02-15T16:22:40;13.20;99.90
612;DHT22;293;53.888;11.464;2024-02-15T16:25:09;13.20;99.90
612;DHT22;293;53.888;11.464;2024-02-15T16:27:37;13.20;99.90
612;DHT22;293;53.888;11.464;2024-02-15T16:30:06;13.20;99.90
612;DHT22;293;53.888;11.464;2024-02-15T16:32:34;13.20;99.90